Time;durP1;ratioP1;P1;durP2;ratioP2;P2;SDS_P1;SDS_P2;PMS_P1;PMS_P2;Temp;Humidity;BMP_temperature;BMP_pressure;BME280_temperature;BME280_humidity;BME280_pressure;Samples;Min_cycle;Max_cycle;Signal;HPM_P1;HPM_P2
2021/10/02 00:35:15;;;;;;;8.02;3.42;;;;;;;16.46;78.26;100908.53;5035237;28;20045;-67
2021/10/02 00:38:09;;;;;;;8.13;3.85;;;;;;;16.66;76.67;100910.38;5035363;28;20527;-67
2021/10/02 00:46:08;;;;;;;6.97;3.35;;;;;;;16.54;77.64;100910.38;5035080;28;20057;-67
2021/10/02 00:48:36;;;;;;;9.07;3.20;;;;;;;16.53;77.71;100903.19;5035543;28;20060;-67
2021/10/02 00:51:05;;;;;;;10.18;3.58;;;;;;;16.43;77.87;100898.06;5032714;28;20053;-62
2021/10/02 00:53:33;;;;;;;7.88;3.58;;;;;;;16.40;77.94;100896.00;5018272;28;20045;-62
2021/10/02 00:56:00;;;;;;;8.38;3.80;;;;;;;16.36;78.14;100897.84;5033874;28;20045;-68
2021/10/02 00:58:29;;;;;;;7.85;3.63;;;;;;;16.42;78.57;100893.66;5034101;28;20053;-68
2021/10/02 01:00:58;;;;;;;8.47;3.73;;;;;;;16.40;78.94;100893.22;5035256;28;20053;-62
2021/10/02 01:03:44;;;;;;;9.50;3.35;;;;;;;16.50;77.69;100891.94;5035244;28;20311;-63
2021/10/02 01:06:24;;;;;;;9.20;3.40;;;;;;;16.52;78.11;100884.06;5033658;28;20057;-63
2021/10/02 01:09:04;;;;;;;9.07;3.45;;;;;;;16.32;78.68;100896.91;5034256;28;20124;-62
2021/10/02 01:11:56;;;;;;;7.68;3.20;;;;;;;16.21;79.24;100889.38;5033718;28;20045;-62
2021/10/02 01:14:26;;;;;;;5.68;3.30;;;;;;;16.35;78.75;100887.06;5033965;28;20049;-62
2021/10/02 01:16:58;;;;;;;8.25;3.08;;;;;;;16.27;78.92;100891.56;5033263;28;20053;-62
2021/10/02 01:19:41;;;;;;;8.13;3.80;;;;;;;16.41;78.30;100902.34;5033833;28;20053;-68
2021/10/02 01:22:14;;;;;;;7.70;2.90;;;;;;;16.36;78.67;100897.03;5033353;28;20049;-61
2021/10/02 01:25:19;;;;;;;9.90;3.53;;;;;;;16.27;79.22;100896.31;5034722;28;20052;-62
2021/10/02 01:27:51;;;;;;;8.40;3.28;;;;;;;16.43;78.56;100886.13;5033495;28;20409;-63
2021/10/02 01:31:17;;;;;;;7.97;2.95;;;;;;;16.36;78.71;100883.94;5034491;28;20046;-63
2021/10/02 01:47:16;;;;;;;6.57;2.95;;;;;;;16.43;78.25;100859.16;5033409;28;20052;-67
2021/10/02 01:49:47;;;;;;;7.68;2.65;;;;;;;16.37;78.42;100856.97;5034693;28;20412;-67
2021/10/02 01:52:16;;;;;;;7.63;2.67;;;;;;;16.39;78.24;100846.28;5032653;28;20429;-67
2021/10/02 01:54:44;;;;;;;9.43;2.40;;;;;;;16.40;78.18;100850.69;5049594;28;20049;-67
2021/10/02 01:57:12;;;;;;;9.70;3.28;;;;;;;16.54;77.67;100840.03;5034573;28;20057;-67
2021/10/02 01:59:41;;;;;;;7.28;2.75;;;;;;;16.46;77.64;100840.94;5016826;28;20053;-68
2021/10/02 02:02:09;;;;;;;11.15;2.85;;;;;;;16.41;77.92;100832.84;5033288;28;20053;-67
2021/10/02 02:04:39;;;;;;;10.52;3.05;;;;;;;16.53;77.58;100830.06;5033481;28;20045;-67
2021/10/02 02:07:07;;;;;;;9.65;3.10;;;;;;;16.56;77.29;100821.03;5034208;28;20049;-68
2021/10/02 02:09:38;;;;;;;9.02;3.15;;;;;;;16.49;77.59;100821.63;5033869;28;20061;-63
2021/10/02 02:12:11;;;;;;;7.95;2.78;;;;;;;16.44;77.93;100830.16;5033569;28;20061;-62
2021/10/02 02:14:40;;;;;;;7.25;2.70;;;;;;;16.53;77.66;100836.44;5032720;28;20057;-61
2021/10/02 02:17:08;;;;;;;8.55;3.38;;;;;;;16.50;77.65;100816.88;4999748;28;20045;-63
2021/10/02 02:19:36;;;;;;;6.47;2.67;;;;;;;16.52;77.24;100812.59;5033227;28;20053;-63
2021/10/02 02:22:04;;;;;;;7.43;3.10;;;;;;;16.40;77.90;100820.13;5032999;28;20053;-66
2021/10/02 02:24:33;;;;;;;6.78;2.45;;;;;;;16.47;77.59;100817.59;5034738;28;20218;-62
2021/10/02 02:27:02;;;;;;;9.05;2.92;;;;;;;16.46;77.90;100802.00;5034437;28;20424;-68
2021/10/02 02:29:32;;;;;;;5.93;2.53;;;;;;;16.47;77.47;100795.34;5034985;28;20058;-63
2021/10/02 02:32:00;;;;;;;5.13;2.45;;;;;;;16.26;78.58;100803.81;5033105;28;20041;-68
2021/10/02 02:34:29;;;;;;;5.35;2.40;;;;;;;16.38;78.58;100801.00;5032396;28;20053;-62
2021/10/02 02:36:57;;;;;;;6.68;2.53;;;;;;;16.43;78.15;100800.75;5033916;28;20061;-62
2021/10/02 02:39:26;;;;;;;6.93;2.53;;;;;;;16.24;78.60;100789.44;5036107;28;20056;-62
2021/10/02 02:41:53;;;;;;;8.55;3.20;;;;;;;16.36;78.33;100774.69;5033154;28;20057;-68
2021/10/02 02:44:21;;;;;;;10.35;2.90;;;;;;;16.43;77.91;100778.50;5032226;28;20053;-62
2021/10/02 02:46:54;;;;;;;8.40;3.03;;;;;;;16.25;78.48;100782.72;5034127;28;20045;-67
2021/10/02 02:49:48;;;;;;;7.18;2.75;;;;;;;16.22;79.08;100788.16;5016106;28;20477;-68
2021/10/02 02:52:21;;;;;;;8.88;3.13;;;;;;;16.35;78.48;100778.66;5021962;28;20084;-68
2021/10/02 02:55:09;;;;;;;11.93;3.20;;;;;;;16.20;78.72;100765.47;5016402;28;20504;-68
2021/10/02 02:57:47;;;;;;;7.05;2.97;;;;;;;16.40;78.67;100775.63;5033586;28;20060;-62
2021/10/02 03:00:20;;;;;;;7.68;2.88;;;;;;;16.51;77.63;100757.34;5033705;28;20054;-68
2021/10/02 03:02:53;;;;;;;8.45;2.75;;;;;;;16.51;77.61;100754.56;5032971;28;20101;-67
2021/10/02 03:05:23;;;;;;;9.52;3.10;;;;;;;16.47;77.59;100767.53;5015693;28;20540;-61
2021/10/02 03:08:01;;;;;;;7.45;2.75;;;;;;;16.35;78.03;100770.31;5016303;28;20065;-61
2021/10/02 03:10:29;;;;;;;7.80;3.25;;;;;;;16.27;79.11;100768.47;5032356;28;20045;-61
2021/10/02 03:13:03;;;;;;;8.20;2.70;;;;;;;16.27;78.76;100771.25;5016811;28;20046;-68
2021/10/02 03:15:31;;;;;;;9.45;3.00;;;;;;;16.27;78.63;100730.38;5017431;28;20049;-63
2021/10/02 03:17:59;;;;;;;7.57;3.47;;;;;;;16.20;78.70;100737.66;5032935;28;20486;-63
2021/10/02 03:20:27;;;;;;;8.98;2.92;;;;;;;16.47;77.87;100748.06;5016637;28;20056;-62
2021/10/02 03:22:55;;;;;;;8.18;3.30;;;;;;;16.47;77.83;100756.41;5024035;28;20076;-63
2021/10/02 03:25:25;;;;;;;7.68;3.70;;;;;;;16.40;77.97;100770.06;5037390;28;20049;-67
2021/10/02 03:27:59;;;;;;;7.72;3.67;;;;;;;16.25;78.07;100770.81;5036117;28;20049;-61
2021/10/02 03:30:28;;;;;;;5.80;2.92;;;;;;;16.21;78.67;100756.78;5036244;28;20068;-62
2021/10/02 03:32:55;;;;;;;11.77;3.78;;;;;;;16.34;78.55;100732.53;5036594;28;20053;-63
2021/10/02 03:35:23;;;;;;;6.65;3.22;;;;;;;16.33;78.29;100725.38;5019969;28;20050;-62
2021/10/02 03:37:51;;;;;;;10.18;3.50;;;;;;;16.43;77.82;100722.09;5019245;28;20045;-63
2021/10/02 03:40:20;;;;;;;7.65;3.85;;;;;;;16.32;77.94;100721.00;5041705;28;20041;-62
2021/10/02 03:42:49;;;;;;;11.38;3.97;;;;;;;16.47;77.59;100715.53;5036498;28;20046;-62
2021/10/02 03:45:18;;;;;;;8.35;4.05;;;;;;;16.40;77.75;100720.03;5036092;28;20052;-62
2021/10/02 03:47:45;;;;;;;7.28;4.28;;;;;;;16.37;78.07;100715.97;5036243;28;20061;-62
2021/10/02 03:50:13;;;;;;;6.40;3.80;;;;;;;16.37;78.35;100720.75;5036978;28;20060;-63
2021/10/02 03:52:40;;;;;;;9.35;4.40;;;;;;;16.41;78.20;100704.94;5034063;28;20046;-62
2021/10/02 03:55:10;;;;;;;7.78;3.95;;;;;;;16.33;78.27;100697.56;5017219;28;20058;-62
2021/10/02 03:57:37;;;;;;;6.82;3.72;;;;;;;16.38;78.78;100689.81;5016802;28;20050;-61
2021/10/02 04:00:07;;;;;;;8.00;3.95;;;;;;;16.39;78.54;100707.28;5023181;28;20072;-62
2021/10/02 04:02:35;;;;;;;7.70;4.22;;;;;;;16.34;78.85;100710.28;5036842;28;20088;-62
2021/10/02 04:05:03;;;;;;;11.48;4.28;;;;;;;16.45;78.47;100706.69;5035289;28;20064;-63
2021/10/02 04:07:30;;;;;;;9.73;4.35;;;;;;;16.62;78.00;100698.06;5036755;28;20361;-61
2021/10/02 04:09:57;;;;;;;6.72;3.67;;;;;;;16.47;78.31;100690.50;5034580;28;20328;-68
2021/10/02 04:12:25;;;;;;;7.70;3.90;;;;;;;16.46;78.45;100679.66;5036828;28;20052;-67
2021/10/02 04:14:52;;;;;;;8.52;4.63;;;;;;;16.44;78.88;100691.16;5035906;28;20050;-67
2021/10/02 04:17:19;;;;;;;8.23;3.70;;;;;;;16.43;79.02;100685.94;5036209;28;20057;-61
2021/10/02 04:19:47;;;;;;;8.38;4.18;;;;;;;16.40;79.12;100689.44;5035150;28;20140;-62
2021/10/02 04:22:14;;;;;;;9.23;3.97;;;;;;;16.57;78.61;100697.50;5034084;28;20061;-62
2021/10/02 04:24:42;;;;;;;10.77;4.10;;;;;;;16.61;78.47;100687.31;5034395;28;20046;-63
2021/10/02 04:27:09;;;;;;;10.88;5.60;;;;;;;16.55;78.69;100697.88;5036247;28;20049;-68
2021/10/02 04:29:37;;;;;;;9.57;5.18;;;;;;;16.49;79.09;100696.50;5036158;28;20052;-68
2021/10/02 04:32:05;;;;;;;13.38;5.60;;;;;;;16.53;79.16;100693.81;5035942;28;20061;-67
2021/10/02 04:34:32;;;;;;;12.50;5.63;;;;;;;16.50;79.10;100687.00;5035837;28;20049;-67
2021/10/02 04:37:00;;;;;;;13.00;5.13;;;;;;;16.51;79.10;100679.47;5034935;28;20053;-67
2021/10/02 04:39:28;;;;;;;9.98;4.13;;;;;;;16.53;78.85;100683.50;5043768;28;20053;-61
2021/10/02 04:41:55;;;;;;;11.52;5.10;;;;;;;16.67;78.32;100697.81;5054405;28;20060;-63
2021/10/02 04:44:22;;;;;;;15.18;6.10;;;;;;;16.57;78.70;100698.34;5042785;28;20064;-63
2021/10/02 04:46:50;;;;;;;12.07;5.40;;;;;;;16.59;78.70;100692.41;5035402;28;20052;-63
2021/10/02 04:49:17;;;;;;;10.30;4.97;;;;;;;16.60;78.82;100675.38;5035109;28;20049;-66
2021/10/02 04:51:45;;;;;;;14.20;5.68;;;;;;;16.52;79.25;100683.88;5035804;28;20060;-68
2021/10/02 04:54:13;;;;;;;10.90;4.78;;;;;;;16.58;78.97;100699.16;5031688;28;20149;-68
2021/10/02 04:56:40;;;;;;;14.95;6.13;;;;;;;16.46;79.41;100690.78;5034111;28;20056;-68
2021/10/02 04:59:07;;;;;;;10.38;4.22;;;;;;;16.54;79.33;100695.44;5035510;28;20046;-61
2021/10/02 05:01:35;;;;;;;12.48;4.72;;;;;;;16.57;79.33;100690.00;5035829;28;20049;-62
2021/10/02 05:04:02;;;;;;;9.63;4.63;;;;;;;16.62;78.69;100686.13;5035433;28;20056;-63
2021/10/02 05:06:29;;;;;;;12.90;5.15;;;;;;;16.62;78.71;100695.28;5033911;28;20058;-63
2021/10/02 05:08:57;;;;;;;10.18;4.38;;;;;;;16.70;78.40;100707.44;5035248;28;20623;-63
2021/10/02 05:11:24;;;;;;;10.00;4.95;;;;;;;16.63;78.52;100708.03;5035968;28;20547;-62
2021/10/02 05:13:51;;;;;;;12.45;5.47;;;;;;;16.68;78.41;100712.53;5034817;28;20054;-68
2021/10/02 05:16:19;;;;;;;14.65;5.45;;;;;;;16.50;79.26;100712.03;5035217;28;20037;-62
2021/10/02 05:18:46;;;;;;;13.73;4.75;;;;;;;16.55;79.32;100692.31;5033750;28;20052;-63
2021/10/02 05:21:13;;;;;;;8.07;4.25;;;;;;;16.60;79.03;100692.06;5017160;28;20121;-62
2021/10/02 05:23:41;;;;;;;14.52;4.90;;;;;;;16.47;79.48;100682.16;5035060;28;20053;-63
2021/10/02 05:26:09;;;;;;;9.98;4.95;;;;;;;16.64;78.94;100672.69;5034046;28;20045;-62
2021/10/02 05:28:36;;;;;;;9.55;4.38;;;;;;;16.57;79.36;100675.25;5033719;28;20068;-63
2021/10/02 05:31:04;;;;;;;14.15;5.45;;;;;;;16.61;78.97;100665.06;5017137;28;20076;-68
2021/10/02 05:33:32;;;;;;;9.00;4.50;;;;;;;16.63;78.88;100657.19;5035147;28;20058;-62
2021/10/02 05:35:59;;;;;;;10.20;3.63;;;;;;;16.57;78.94;100648.28;5034580;28;20053;-64
2021/10/02 05:38:27;;;;;;;12.40;4.38;;;;;;;16.57;79.09;100653.03;5034291;28;20684;-63
2021/10/02 05:40:54;;;;;;;11.07;4.90;;;;;;;16.60;78.63;100639.22;5041442;28;20075;-63
2021/10/02 05:43:21;;;;;;;11.82;3.78;;;;;;;16.60;78.89;100649.53;5034855;28;20079;-62
2021/10/02 05:45:49;;;;;;;9.10;3.90;;;;;;;16.71;78.45;100637.53;5034765;28;20049;-63
2021/10/02 05:48:16;;;;;;;10.70;3.33;;;;;;;16.63;78.45;100626.59;5034535;28;20052;-63
2021/10/02 05:50:45;;;;;;;8.35;3.25;;;;;;;16.69;78.35;100634.31;5033030;28;20057;-62
2021/10/02 05:53:12;;;;;;;8.43;3.38;;;;;;;16.64;78.32;100633.75;5033565;28;20049;-63
2021/10/02 05:55:40;;;;;;;8.93;3.70;;;;;;;16.59;78.87;100625.66;5032755;28;20053;-62
2021/10/02 05:58:07;;;;;;;10.65;3.47;;;;;;;16.64;78.37;100631.78;5034580;28;20060;-62
2021/10/02 06:00:34;;;;;;;8.13;3.17;;;;;;;16.69;78.25;100645.44;5033152;28;20116;-63
2021/10/02 06:03:02;;;;;;;10.48;3.85;;;;;;;16.72;78.20;100638.31;5033016;28;20063;-63
2021/10/02 06:05:29;;;;;;;13.05;3.13;;;;;;;16.62;78.53;100644.41;5033962;28;20049;-62
2021/10/02 06:07:57;;;;;;;9.15;3.40;;;;;;;16.69;77.99;100642.66;5033483;28;20532;-67
2021/10/02 06:10:25;;;;;;;10.52;3.05;;;;;;;16.72;77.77;100633.59;5033777;28;20057;-68
2021/10/02 06:12:54;;;;;;;11.02;3.50;;;;;;;16.65;77.87;100641.72;5032108;28;20069;-68
2021/10/02 06:15:22;;;;;;;12.88;4.13;;;;;;;16.59;78.03;100642.34;5032305;28;20050;-68
2021/10/02 06:17:50;;;;;;;12.93;3.40;;;;;;;16.54;78.19;100653.75;5031861;28;20046;-62
2021/10/02 06:20:18;;;;;;;13.13;3.90;;;;;;;16.63;77.97;100648.84;5034531;28;20053;-68
2021/10/02 06:22:45;;;;;;;10.02;3.85;;;;;;;16.77;77.26;100649.22;5032991;28;20053;-68
2021/10/02 06:25:13;;;;;;;7.75;3.40;;;;;;;16.78;76.46;100651.63;5032585;28;20058;-68
2021/10/02 06:27:40;;;;;;;11.10;3.92;;;;;;;16.67;76.72;100641.38;5034776;28;20054;-68
2021/10/02 06:30:08;;;;;;;9.10;3.35;;;;;;;16.74;76.33;100630.44;5034206;28;20049;-68
2021/10/02 06:32:37;;;;;;;11.50;2.88;;;;;;;16.74;76.13;100613.75;5032525;28;20402;-67
2021/10/02 06:35:05;;;;;;;14.18;3.53;;;;;;;16.66;76.09;100609.16;5016114;28;20057;-67
2021/10/02 06:37:32;;;;;;;9.40;2.55;;;;;;;16.77;75.78;100613.06;5033179;28;20046;-68
2021/10/02 06:39:59;;;;;;;11.93;2.80;;;;;;;16.82;75.31;100624.69;5045597;28;20056;-68
2021/10/02 06:42:28;;;;;;;11.40;2.88;;;;;;;16.60;76.30;100630.06;5037816;28;20514;-63
2021/10/02 06:44:56;;;;;;;11.88;2.65;;;;;;;16.56;75.81;100629.16;5032747;28;20059;-62
2021/10/02 06:47:23;;;;;;;11.40;2.10;;;;;;;16.72;75.55;100616.06;5036845;28;20049;-63
2021/10/02 06:49:56;;;;;;;8.68;2.50;;;;;;;16.62;75.99;100628.53;5037558;28;20670;-62
2021/10/02 06:52:28;;;;;;;10.68;2.80;;;;;;;16.59;75.87;100634.81;5037666;28;20045;-63
2021/10/02 06:54:57;;;;;;;8.48;2.28;;;;;;;16.92;75.09;100640.06;5034593;28;20045;-62
2021/10/02 06:57:25;;;;;;;15.50;2.80;;;;;;;16.81;75.11;100644.53;5036008;28;20042;-62
2021/10/02 06:59:52;;;;;;;8.85;2.17;;;;;;;16.65;75.31;100638.13;5037729;28;20057;-62
2021/10/02 07:02:20;;;;;;;12.40;2.60;;;;;;;16.70;75.33;100635.13;5034856;28;20057;-62
2021/10/02 07:04:49;;;;;;;12.18;2.60;;;;;;;16.59;75.34;100620.94;5037818;28;20385;-63
2021/10/02 07:07:17;;;;;;;11.02;2.67;;;;;;;16.59;75.46;100626.47;5036918;28;20052;-63
2021/10/02 07:09:45;;;;;;;9.85;3.00;;;;;;;16.66;75.07;100623.09;5038427;28;20061;-63
2021/10/02 07:12:13;;;;;;;12.52;2.50;;;;;;;16.59;74.86;100629.25;5037025;28;20053;-62
2021/10/02 07:14:40;;;;;;;16.35;3.10;;;;;;;16.70;74.94;100632.34;5037492;28;20060;-63
2021/10/02 07:17:10;;;;;;;8.45;2.10;;;;;;;16.64;74.96;100640.13;5036814;28;20044;-62
2021/10/02 07:19:37;;;;;;;13.63;3.67;;;;;;;16.77;74.51;100646.44;5036478;28;20057;-62
2021/10/02 07:22:05;;;;;;;10.02;2.72;;;;;;;16.75;74.63;100645.97;5035994;28;20049;-68
2021/10/02 07:24:32;;;;;;;11.55;3.10;;;;;;;16.86;73.80;100635.94;5037857;28;20057;-67
2021/10/02 07:27:00;;;;;;;13.07;2.60;;;;;;;16.80;73.80;100629.84;5036343;28;20060;-68
2021/10/02 07:29:27;;;;;;;13.80;3.28;;;;;;;16.79;73.78;100616.25;5033526;28;20049;-67
2021/10/02 07:31:55;;;;;;;13.15;3.25;;;;;;;16.57;74.41;100606.56;5027918;28;20615;-68
2021/10/02 07:34:23;;;;;;;14.30;3.15;;;;;;;16.83;73.72;100606.06;5036761;28;20064;-67
2021/10/02 07:36:50;;;;;;;22.85;3.72;;;;;;;16.87;73.56;100604.19;5020078;28;20619;-67
2021/10/02 07:39:17;;;;;;;13.18;4.30;;;;;;;17.05;73.06;100594.28;5031345;28;20060;-68
2021/10/02 07:41:47;;;;;;;17.17;5.30;;;;;;;16.86;72.36;100595.00;5023614;28;20056;-68
2021/10/02 07:44:18;;;;;;;11.65;2.97;;;;;;;16.86;72.40;100589.44;5055361;28;20045;-68
2021/10/02 07:46:48;;;;;;;16.70;5.07;;;;;;;16.83;73.11;100589.34;5055700;28;20064;-69
2021/10/02 07:49:17;;;;;;;13.98;4.80;;;;;;;16.84;72.56;100580.66;5028419;28;20041;-61
2021/10/02 07:51:46;;;;;;;12.93;3.03;;;;;;;16.91;72.36;100568.91;5032845;28;20093;-60
2021/10/02 07:54:14;;;;;;;14.13;2.58;;;;;;;17.06;71.69;100579.22;5034337;28;20045;-62
2021/10/02 07:56:44;;;;;;;13.75;3.03;;;;;;;17.16;71.57;100575.88;5033929;28;20053;-61
2021/10/02 07:59:12;;;;;;;16.58;2.60;;;;;;;17.29;70.58;100571.84;5035665;28;20045;-62
2021/10/02 08:01:43;;;;;;;17.08;3.15;;;;;;;17.11;70.42;100578.94;5031038;28;20053;-61
2021/10/02 08:04:11;;;;;;;8.75;3.30;;;;;;;17.14;70.77;100583.78;5039556;28;20045;-60
2021/10/02 08:06:43;;;;;;;17.45;3.58;;;;;;;17.36;73.00;100579.53;5029863;28;20049;-62
2021/10/02 08:09:11;;;;;;;23.10;3.92;;;;;;;17.52;75.06;100578.34;5034902;28;20045;-63
2021/10/02 08:11:39;;;;;;;21.20;3.42;;;;;;;17.50;75.83;100577.94;5033649;28;20049;-61
2021/10/02 08:14:08;;;;;;;17.70;3.22;;;;;;;17.41;74.71;100568.94;5038396;28;20057;-62
2021/10/02 08:16:37;;;;;;;20.17;3.33;;;;;;;17.29;71.83;100565.47;5029181;28;20358;-67
2021/10/02 08:19:09;;;;;;;18.88;4.50;;;;;;;17.35;72.41;100548.09;5033734;28;20048;-68
2021/10/02 08:21:38;;;;;;;16.50;3.50;;;;;;;17.12;70.58;100552.72;5034918;28;20060;-63
2021/10/02 08:24:07;;;;;;;8.55;2.75;;;;;;;17.20;71.73;100537.81;5034939;28;20610;-68
2021/10/02 08:26:34;;;;;;;13.45;3.10;;;;;;;17.35;71.59;100539.75;5031604;28;20058;-70
2021/10/02 08:29:02;;;;;;;14.50;3.17;;;;;;;17.30;71.84;100539.22;5028936;28;20049;-68
2021/10/02 08:31:31;;;;;;;14.73;2.63;;;;;;;17.30;72.45;100530.88;5035346;28;20053;-69
2021/10/02 08:34:18;;;;;;;16.92;3.50;;;;;;;17.17;70.16;100523.81;5034072;28;20057;-67
2021/10/02 08:36:45;;;;;;;23.52;6.28;;;;;;;17.23;71.58;100525.13;5034550;28;20075;-68
2021/10/02 08:39:13;;;;;;;11.63;3.05;;;;;;;17.16;71.77;100528.56;5041879;28;20140;-68
2021/10/02 08:41:41;;;;;;;17.35;3.00;;;;;;;17.10;71.22;100524.47;5049974;28;20045;-68
2021/10/02 08:44:10;;;;;;;15.45;3.97;;;;;;;17.26;71.08;100525.22;5035481;28;20049;-61
2021/10/02 08:46:38;;;;;;;13.52;2.85;;;;;;;17.15;70.63;100515.84;5001257;28;20064;-62
2021/10/02 08:49:23;;;;;;;12.60;2.85;;;;;;;17.13;70.27;100511.78;5033671;28;20068;-62
2021/10/02 08:51:51;;;;;;;11.60;3.10;;;;;;;17.13;71.25;100506.22;5036391;28;20080;-63
2021/10/02 08:54:19;;;;;;;12.25;2.95;;;;;;;17.35;70.29;100511.09;5033446;28;20053;-61
2021/10/02 08:56:47;;;;;;;13.57;2.63;;;;;;;17.29;70.57;100512.56;5024786;28;20042;-62
2021/10/02 08:59:14;;;;;;;12.80;3.40;;;;;;;17.44;69.94;100515.31;5033256;28;20049;-63
2021/10/02 09:01:42;;;;;;;16.73;3.13;;;;;;;17.36;68.48;100515.50;5033175;28;20052;-63
2021/10/02 09:04:10;;;;;;;20.42;10.25;;;;;;;17.32;69.22;100506.25;5052579;28;20041;-62
2021/10/02 09:06:38;;;;;;;17.90;4.95;;;;;;;17.13;69.44;100501.47;5019763;28;20068;-61
2021/10/02 09:09:07;;;;;;;20.38;7.85;;;;;;;17.19;69.55;100496.44;5048157;28;20053;-63
2021/10/02 09:11:35;;;;;;;20.75;4.50;;;;;;;17.33;69.42;100503.09;5043973;28;20068;-62
2021/10/02 09:14:03;;;;;;;25.67;8.15;;;;;;;17.30;69.29;100495.50;5034585;28;20064;-63
2021/10/02 09:16:30;;;;;;;26.67;9.65;;;;;;;17.32;69.36;100495.13;5031157;28;20045;-62
2021/10/02 09:18:58;;;;;;;25.67;11.85;;;;;;;17.28;69.18;100480.31;5032868;28;20042;-63
2021/10/02 09:21:25;;;;;;;12.40;4.22;;;;;;;17.20;69.77;100471.00;5034293;28;20045;-65
2021/10/02 09:23:52;;;;;;;14.00;3.38;;;;;;;17.33;69.03;100457.78;5027945;28;20061;-64
2021/10/02 09:26:40;;;;;;;11.70;3.25;;;;;;;17.40;68.56;100458.72;5033848;28;20056;-65
2021/10/02 09:29:10;;;;;;;9.68;2.92;;;;;;;17.49;67.99;100461.31;5034364;28;20042;-62
2021/10/02 09:31:38;;;;;;;13.48;4.25;;;;;;;17.60;67.88;100446.47;5032947;28;20053;-62
2021/10/02 09:34:05;;;;;;;12.93;3.30;;;;;;;17.86;67.70;100443.78;5034288;28;20053;-61
2021/10/02 09:36:44;;;;;;;14.68;2.92;;;;;;;17.76;67.52;100432.44;5034014;28;20062;-61
2021/10/02 09:39:12;;;;;;;12.17;2.63;;;;;;;17.82;67.04;100420.63;5036926;28;20056;-62
2021/10/02 09:41:48;;;;;;;14.13;3.05;;;;;;;17.64;67.74;100408.31;5035762;28;20295;-63
2021/10/02 09:44:25;;;;;;;9.07;2.55;;;;;;;17.51;67.14;100403.28;5034079;28;20053;-64
2021/10/02 09:46:52;;;;;;;11.05;3.22;;;;;;;17.64;67.65;100399.19;5033497;28;20518;-63
2021/10/02 09:49:19;;;;;;;9.52;2.67;;;;;;;17.56;67.92;100384.28;5032240;28;20068;-61
2021/10/02 09:51:47;;;;;;;13.40;3.05;;;;;;;17.72;67.00;100379.44;5033848;28;20049;-64
2021/10/02 09:54:39;;;;;;;13.02;3.72;;;;;;;17.95;65.94;100365.53;5024182;28;20052;-64
2021/10/02 09:57:14;;;;;;;14.90;2.85;;;;;;;17.29;66.92;100349.13;5029066;28;20128;-64
2021/10/02 09:59:42;;;;;;;9.35;2.70;;;;;;;16.97;68.07;100347.66;5033924;28;20041;-64
2021/10/02 10:02:19;;;;;;;10.25;2.78;;;;;;;16.97;69.80;100330.94;5034501;28;20054;-62
2021/10/02 10:04:54;;;;;;;9.43;2.40;;;;;;;17.04;68.84;100324.72;5032835;28;20053;-62
2021/10/02 10:07:22;;;;;;;10.07;2.08;;;;;;;17.39;68.65;100308.72;5032912;28;20053;-62
2021/10/02 10:10:01;;;;;;;13.98;3.05;;;;;;;17.50;68.10;100310.59;5031924;28;20053;-62
2021/10/02 10:12:29;;;;;;;13.25;2.50;;;;;;;17.71;67.29;100307.38;5030904;28;20050;-62
2021/10/02 10:14:57;;;;;;;17.42;1.95;;;;;;;17.67;66.44;100306.50;5013699;28;20061;-63
2021/10/02 10:17:25;;;;;;;10.30;2.42;;;;;;;17.44;67.10;100302.84;5032895;28;20060;-64
2021/10/02 10:20:08;;;;;;;9.70;2.53;;;;;;;17.77;67.50;100287.19;5033656;28;20053;-62
2021/10/02 10:22:36;;;;;;;9.30;2.38;;;;;;;18.13;66.87;100282.22;5038713;28;20048;-64
2021/10/02 10:25:09;;;;;;;9.23;2.80;;;;;;;18.44;66.41;100279.13;5037603;28;20064;-63
2021/10/02 10:27:41;;;;;;;10.65;2.30;;;;;;;18.28;63.87;100261.72;5037095;28;20049;-63
2021/10/02 10:30:22;;;;;;;11.40;2.22;;;;;;;18.31;65.23;100247.03;5036526;28;20049;-63
2021/10/02 10:33:10;;;;;;;11.90;2.10;;;;;;;18.05;66.46;100258.19;5036607;28;20064;-62
2021/10/02 10:35:59;;;;;;;9.30;2.05;;;;;;;18.09;65.83;100259.84;5032171;28;20064;-64
2021/10/02 10:38:26;;;;;;;7.97;2.20;;;;;;;18.25;66.15;100268.88;5038741;28;20053;-63
2021/10/02 10:40:53;;;;;;;8.25;2.45;;;;;;;18.49;67.14;100276.81;5039345;28;21127;-64
2021/10/02 10:43:21;;;;;;;21.60;2.85;;;;;;;18.73;66.29;100265.19;5036863;28;20056;-65
2021/10/02 10:45:48;;;;;;;10.35;2.58;;;;;;;18.57;63.94;100270.16;5036023;28;20061;-65
2021/10/02 10:48:16;;;;;;;12.63;2.40;;;;;;;19.09;64.60;100269.22;5036509;28;20045;-64
2021/10/02 10:50:44;;;;;;;9.73;2.50;;;;;;;19.18;63.97;100254.97;5037685;28;20602;-65
2021/10/02 10:53:12;;;;;;;8.95;2.33;;;;;;;18.95;61.64;100244.72;5035753;28;20045;-64
2021/10/02 10:55:54;;;;;;;11.88;3.30;;;;;;;18.78;68.46;100250.09;5030728;28;20045;-64
2021/10/02 10:58:29;;;;;;;13.93;3.63;;;;;;;18.83;68.82;100235.81;5032024;28;20570;-63
2021/10/02 11:00:58;;;;;;;10.20;2.40;;;;;;;18.75;65.85;100232.13;5035729;28;20049;-64
2021/10/02 11:03:52;;;;;;;13.52;2.60;;;;;;;18.83;64.82;100219.88;5002811;28;20056;-63
2021/10/02 11:06:20;;;;;;;10.48;2.38;;;;;;;18.85;64.29;100227.84;5029655;28;20489;-64
2021/10/02 11:09:07;;;;;;;14.05;3.13;;;;;;;18.68;63.03;100220.06;5039700;28;20045;-63
2021/10/02 11:11:46;;;;;;;14.88;3.45;;;;;;;18.82;64.72;100212.69;5042240;28;20053;-64
2021/10/02 11:14:15;;;;;;;11.07;2.30;;;;;;;18.82;64.72;100200.72;5034858;28;20057;-63
2021/10/02 11:16:44;;;;;;;17.33;3.65;;;;;;;18.91;66.47;100204.84;5037922;28;20061;-62
2021/10/02 11:19:30;;;;;;;10.20;2.70;;;;;;;18.77;63.69;100207.44;5034890;28;20046;-63
2021/10/02 11:22:39;;;;;;;12.88;2.92;;;;;;;18.69;66.53;100191.78;5036475;28;20058;-63
2021/10/02 11:25:23;;;;;;;11.93;2.72;;;;;;;18.86;65.58;100184.81;5034372;28;20484;-64
2021/10/02 11:27:52;;;;;;;13.52;3.60;;;;;;;18.72;66.33;100171.53;5032675;28;20057;-62
2021/10/02 11:30:20;;;;;;;15.98;3.88;;;;;;;18.92;66.92;100181.31;5034846;28;20452;-63
2021/10/02 11:32:48;;;;;;;12.68;3.08;;;;;;;18.80;67.13;100178.78;5034679;28;20056;-64
2021/10/02 11:35:30;;;;;;;13.70;3.60;;;;;;;18.86;65.91;100163.28;5032310;28;20507;-65
2021/10/02 11:38:07;;;;;;;15.10;5.50;;;;;;;18.97;66.92;100155.84;5025362;28;20053;-63
2021/10/02 11:40:40;;;;;;;16.98;4.10;;;;;;;19.38;71.53;100153.06;5036661;28;20050;-63
2021/10/02 11:43:13;;;;;;;14.10;4.75;;;;;;;18.91;66.27;100149.00;5038608;28;20393;-63
2021/10/02 11:45:53;;;;;;;14.32;3.63;;;;;;;18.87;67.72;100125.84;5036942;28;20064;-63
2021/10/02 11:48:31;;;;;;;9.77;2.72;;;;;;;19.11;69.52;100120.88;5036158;28;20049;-63
2021/10/02 11:51:31;;;;;;;15.75;3.97;;;;;;;18.96;66.78;100117.97;5035772;28;20499;-64
2021/10/02 11:54:07;;;;;;;14.30;2.97;;;;;;;18.93;66.34;100117.91;4992367;28;20057;-62
2021/10/02 11:56:36;;;;;;;9.95;2.40;;;;;;;18.74;66.72;100093.00;5036312;28;20054;-63
2021/10/02 11:59:04;;;;;;;11.15;2.65;;;;;;;18.87;66.19;100085.94;5036715;28;20087;-64
2021/10/02 12:01:33;;;;;;;10.45;2.63;;;;;;;18.79;67.38;100079.50;5035770;28;20061;-62
2021/10/02 12:04:12;;;;;;;8.00;2.10;;;;;;;18.90;66.95;100087.97;5050183;28;20053;-63
2021/10/02 12:06:43;;;;;;;10.13;2.47;;;;;;;18.99;67.06;100074.50;5034869;28;20069;-62
2021/10/02 12:09:15;;;;;;;10.13;2.10;;;;;;;18.86;68.58;100065.59;5036350;28;20049;-63
2021/10/02 12:11:46;;;;;;;11.90;2.75;;;;;;;18.63;66.16;100058.63;5033187;28;20049;-62
2021/10/02 12:14:17;;;;;;;11.38;2.95;;;;;;;18.87;70.41;100058.03;5035948;28;20065;-64
2021/10/02 12:16:51;;;;;;;10.15;2.47;;;;;;;18.92;68.78;100049.31;5028977;28;20060;-62
2021/10/02 12:19:21;;;;;;;11.30;2.75;;;;;;;19.12;70.41;100047.09;5031335;28;20064;-63
2021/10/02 12:21:48;;;;;;;9.82;2.67;;;;;;;19.15;68.52;100041.53;5034649;28;20052;-63
2021/10/02 12:24:37;;;;;;;10.40;3.00;;;;;;;19.13;69.42;100043.09;5029169;28;20569;-63
2021/10/02 12:27:08;;;;;;;11.90;2.72;;;;;;;19.04;68.30;100035.88;5032095;28;20052;-63
2021/10/02 12:29:38;;;;;;;8.15;2.25;;;;;;;18.96;69.19;100036.19;5029585;28;20053;-62